createdAt,value
2022-09-30T00:00:41.823Z,10.23
2022-09-30T00:04:04.898Z,10.23
2022-09-30T00:07:07.885Z,10.23
2022-09-30T00:10:11.071Z,10.22
2022-09-30T00:13:15.100Z,10.22
2022-09-30T00:16:21.300Z,10.21
2022-09-30T00:19:24.478Z,10.21
2022-09-30T00:22:27.473Z,10.19
2022-09-30T00:25:30.553Z,10.18
2022-09-30T00:28:34.369Z,10.17
2022-09-30T00:31:37.538Z,10.16
2022-09-30T00:34:41.127Z,10.15
2022-09-30T00:37:44.158Z,10.14
2022-09-30T00:40:47.525Z,10.12
2022-09-30T00:43:53.629Z,10.11
2022-09-30T00:46:57.141Z,10.10
2022-09-30T00:50:10.113Z,10.09
2022-09-30T00:53:24.695Z,10.09
2022-09-30T00:56:38.376Z,10.10
2022-09-30T00:59:45.715Z,10.11
2022-09-30T01:02:49.714Z,10.12
2022-09-30T01:05:53.704Z,10.14
2022-09-30T01:08:58.556Z,10.14
2022-09-30T01:12:07.276Z,10.15
2022-09-30T01:15:10.843Z,10.17
2022-09-30T01:18:21.318Z,10.18
2022-09-30T01:21:40.982Z,10.19
2022-09-30T01:25:02.383Z,10.20
2022-09-30T01:28:26.203Z,10.21
2022-09-30T01:31:49.465Z,10.23
2022-09-30T01:35:15.544Z,10.24
2022-09-30T01:38:18.691Z,10.24
2022-09-30T01:41:54.688Z,10.24
2022-09-30T01:45:13.633Z,10.25
2022-09-30T01:48:28.591Z,10.26
2022-09-30T01:51:45.914Z,10.26
2022-09-30T01:55:38.141Z,10.26
2022-09-30T01:58:53.544Z,10.26
2022-09-30T02:02:06.920Z,10.27
2022-09-30T02:05:19.645Z,10.27
2022-09-30T02:08:35.515Z,10.27
2022-09-30T02:11:41.079Z,10.27
2022-09-30T02:14:57.339Z,10.27
2022-09-30T02:18:08.435Z,10.27
2022-09-30T02:21:15.941Z,10.27
2022-09-30T02:24:25.368Z,10.27
2022-09-30T02:27:34.702Z,10.26
2022-09-30T02:30:43.200Z,10.26
2022-09-30T02:33:55.103Z,10.26
2022-09-30T02:37:32.859Z,10.26
2022-09-30T02:40:47.555Z,10.26
2022-09-30T02:43:52.425Z,10.26
2022-09-30T02:47:19.438Z,10.25
2022-09-30T02:50:53.507Z,10.27
2022-09-30T02:54:07.483Z,10.28
2022-09-30T02:57:47.638Z,10.29
2022-09-30T03:00:50.634Z,10.28
2022-09-30T03:04:00.750Z,10.30
2022-09-30T03:07:03.916Z,10.31
2022-09-30T03:10:15.692Z,10.30
2022-09-30T03:13:44.382Z,10.31
2022-09-30T03:17:17.278Z,10.31
2022-09-30T03:20:34.510Z,10.32
2022-09-30T03:23:59.104Z,10.33
2022-09-30T03:27:32.557Z,10.34
2022-09-30T03:30:45.406Z,10.35
2022-09-30T03:34:22.246Z,10.35
2022-09-30T03:37:40.413Z,10.37
2022-09-30T03:41:02.972Z,10.38
2022-09-30T03:44:17.308Z,10.40
2022-09-30T03:47:22.466Z,10.41
2022-09-30T03:50:28.309Z,10.42
2022-09-30T03:53:31.554Z,10.42
2022-09-30T03:56:34.498Z,10.42
2022-09-30T03:59:37.382Z,10.43
2022-09-30T04:02:40.419Z,10.42
2022-09-30T04:05:43.758Z,10.42
2022-09-30T04:08:46.765Z,10.42
2022-09-30T04:11:49.739Z,10.41
2022-09-30T04:14:52.767Z,10.41
2022-09-30T04:17:55.764Z,10.41
2022-09-30T04:20:59.291Z,10.41
2022-09-30T04:24:02.529Z,10.41
2022-09-30T04:27:05.528Z,10.41
2022-09-30T04:30:08.911Z,10.41
2022-09-30T04:33:12.864Z,10.41
2022-09-30T04:36:15.893Z,10.40
2022-09-30T04:39:18.885Z,10.40
2022-09-30T04:42:21.912Z,10.41
2022-09-30T04:45:25.087Z,10.41
2022-09-30T04:48:30.351Z,10.42
2022-09-30T04:51:33.408Z,10.42
2022-09-30T04:54:36.594Z,10.42
2022-09-30T04:57:39.758Z,10.43
2022-09-30T05:00:42.810Z,10.44
2022-09-30T05:03:47.319Z,10.45
2022-09-30T05:06:50.379Z,10.45
2022-09-30T05:09:53.547Z,10.46
2022-09-30T05:12:58.088Z,10.48
2022-09-30T05:16:02.333Z,10.49
2022-09-30T05:19:05.593Z,10.50
2022-09-30T05:22:08.697Z,10.51
2022-09-30T05:25:11.850Z,10.53
2022-09-30T05:28:15.131Z,10.54
2022-09-30T05:31:20.845Z,10.57
2022-09-30T05:34:24.253Z,10.58
2022-09-30T05:37:27.355Z,10.60
2022-09-30T05:40:31.643Z,10.61
2022-09-30T05:43:37.311Z,10.61
2022-09-30T05:46:40.483Z,10.63
2022-09-30T05:49:43.546Z,10.64
2022-09-30T05:52:46.828Z,10.65
2022-09-30T05:55:50.582Z,10.67
2022-09-30T05:58:53.998Z,10.69
2022-09-30T06:01:57.032Z,10.70
2022-09-30T06:05:00.084Z,10.71
2022-09-30T06:08:04.202Z,10.73
2022-09-30T06:11:13.546Z,10.74
2022-09-30T06:14:20.015Z,10.76
2022-09-30T06:17:23.785Z,10.76
2022-09-30T06:20:26.974Z,10.78
2022-09-30T06:23:31.244Z,10.79
2022-09-30T06:26:34.331Z,10.79
2022-09-30T06:29:38.452Z,10.81
2022-09-30T06:32:42.591Z,10.83
2022-09-30T06:35:47.480Z,10.84
2022-09-30T06:38:54.509Z,10.85
2022-09-30T06:41:57.491Z,10.87
2022-09-30T06:45:01.191Z,10.88
2022-09-30T06:48:05.875Z,10.88
2022-09-30T06:51:11.764Z,10.90
2022-09-30T06:54:14.659Z,10.92
2022-09-30T06:57:22.635Z,10.93
2022-09-30T07:00:27.309Z,10.95
2022-09-30T07:03:33.075Z,10.97
2022-09-30T07:06:35.982Z,11.00
2022-09-30T07:09:39.101Z,11.02
2022-09-30T07:12:42.381Z,11.05
2022-09-30T07:15:45.303Z,11.08
2022-09-30T07:18:48.216Z,11.10
2022-09-30T07:21:51.411Z,11.12
2022-09-30T07:24:56.061Z,11.15
2022-09-30T07:27:58.997Z,11.17
2022-09-30T07:31:31.192Z,11.18
2022-09-30T07:34:31.158Z,11.20
2022-09-30T07:37:36.414Z,11.23
2022-09-30T07:40:39.295Z,11.26
2022-09-30T07:43:46.669Z,11.28
2022-09-30T07:46:49.726Z,11.31
2022-09-30T07:49:52.669Z,11.33
2022-09-30T07:52:56.405Z,11.35
2022-09-30T07:56:04.730Z,11.39
2022-09-30T07:59:08.101Z,11.41
2022-09-30T08:02:18.287Z,11.44
2022-09-30T08:05:21.844Z,11.46
2022-09-30T08:08:24.844Z,11.48
2022-09-30T08:11:27.925Z,11.50
2022-09-30T08:14:30.964Z,11.52
2022-09-30T08:17:33.870Z,11.54
2022-09-30T08:20:36.827Z,11.56
2022-09-30T08:23:40.486Z,11.57
2022-09-30T08:26:43.588Z,11.59
2022-09-30T08:29:55.513Z,11.60
2022-09-30T08:32:59.812Z,11.60
2022-09-30T08:36:10.937Z,11.62
2022-09-30T08:39:14.170Z,11.64
2022-09-30T08:42:38.821Z,11.65
2022-09-30T08:45:57.208Z,11.68
2022-09-30T08:49:24.347Z,11.69
2022-09-30T08:52:45.065Z,11.71
2022-09-30T08:55:54.561Z,11.72
2022-09-30T08:59:43.699Z,11.73
2022-09-30T09:02:50.107Z,11.74
2022-09-30T09:06:01.821Z,11.75
2022-09-30T09:09:23.582Z,11.76
2022-09-30T09:13:04.159Z,11.76
2022-09-30T09:16:30.250Z,11.76
2022-09-30T09:20:05.171Z,11.76
2022-09-30T09:23:11.902Z,11.76
2022-09-30T09:26:24.693Z,11.75
2022-09-30T09:29:49.010Z,11.75
2022-09-30T09:33:00.417Z,11.77
2022-09-30T09:36:34.105Z,11.77
2022-09-30T09:40:00.373Z,11.77
2022-09-30T09:43:26.291Z,11.77
2022-09-30T09:47:05.139Z,11.77
2022-09-30T09:50:19.367Z,11.78
2022-09-30T09:53:55.998Z,11.78
2022-09-30T09:57:16.111Z,11.78
2022-09-30T10:00:46.152Z,11.79
2022-09-30T10:04:14.746Z,11.81
2022-09-30T10:07:20.420Z,11.82
2022-09-30T10:10:24.470Z,11.83
2022-09-30T10:13:46.713Z,11.85
2022-09-30T10:16:55.006Z,11.88
2022-09-30T10:20:02.020Z,11.90
2022-09-30T10:23:32.425Z,11.91
2022-09-30T10:26:48.469Z,11.92
2022-09-30T10:29:57.097Z,11.94
2022-09-30T10:33:04.514Z,11.94
2022-09-30T10:36:13.931Z,11.95
2022-09-30T10:39:24.696Z,11.96
2022-09-30T10:42:36.270Z,11.97
2022-09-30T10:45:41.327Z,11.98
2022-09-30T10:48:50.508Z,11.99
2022-09-30T10:51:54.605Z,11.99
2022-09-30T10:54:59.978Z,12.01
2022-09-30T10:58:42.233Z,12.02
2022-09-30T11:02:01.978Z,12.03
2022-09-30T11:05:24.511Z,12.04
2022-09-30T11:08:45.327Z,12.04
2022-09-30T11:12:01.602Z,12.04
2022-09-30T11:15:24.096Z,12.04
2022-09-30T11:18:34.918Z,12.04
2022-09-30T11:21:46.478Z,12.04
2022-09-30T11:24:53.540Z,12.04
2022-09-30T11:28:31.223Z,12.04
2022-09-30T11:31:49.270Z,12.05
2022-09-30T11:35:23.099Z,12.06
2022-09-30T11:38:55.665Z,12.07
2022-09-30T11:42:17.645Z,12.08
2022-09-30T11:45:30.019Z,12.09
2022-09-30T11:48:35.769Z,12.10
2022-09-30T11:51:50.544Z,12.11
2022-09-30T11:55:13.083Z,12.11
2022-09-30T11:58:40.386Z,12.12
2022-09-30T12:01:49.432Z,12.13
2022-09-30T12:04:59.173Z,12.14
2022-09-30T12:08:11.980Z,12.15
2022-09-30T12:11:20.437Z,12.14
2022-09-30T12:14:34.502Z,12.13
2022-09-30T12:17:37.341Z,12.13
2022-09-30T12:20:43.203Z,12.13
2022-09-30T12:23:58.248Z,12.13
2022-09-30T12:27:02.073Z,12.12
2022-09-30T12:30:17.907Z,12.12
2022-09-30T12:33:56.365Z,12.12
2022-09-30T12:37:15.598Z,12.11
2022-09-30T12:40:33.227Z,12.10
2022-09-30T12:43:57.417Z,12.09
2022-09-30T12:47:19.558Z,12.08
2022-09-30T12:50:41.556Z,12.08
2022-09-30T12:53:50.184Z,12.06
2022-09-30T12:56:56.599Z,12.06
2022-09-30T13:00:08.298Z,12.06
2022-09-30T13:03:18.282Z,12.06
2022-09-30T13:06:22.482Z,12.05
2022-09-30T13:09:55.422Z,12.05
2022-09-30T13:13:10.574Z,12.05
2022-09-30T13:16:13.684Z,12.04
2022-09-30T13:19:21.399Z,12.05
2022-09-30T13:22:42.214Z,12.05
2022-09-30T13:25:54.820Z,12.06
2022-09-30T13:29:00.805Z,12.05
2022-09-30T13:32:05.431Z,12.05
2022-09-30T13:35:40.552Z,12.04
2022-09-30T13:38:43.633Z,12.04
2022-09-30T13:42:02.398Z,12.04
2022-09-30T13:45:21.958Z,12.04
2022-09-30T13:48:35.384Z,12.04
2022-09-30T13:51:41.729Z,12.04
2022-09-30T13:54:47.919Z,12.04
2022-09-30T13:58:28.472Z,12.04
2022-09-30T14:01:38.898Z,12.04
2022-09-30T14:04:47.543Z,12.05
2022-09-30T14:08:10.689Z,12.06
2022-09-30T14:11:13.735Z,12.07
2022-09-30T14:14:36.384Z,12.07
2022-09-30T14:17:49.637Z,12.08
2022-09-30T14:21:16.170Z,12.10
2022-09-30T14:24:24.133Z,12.09
2022-09-30T14:27:29.784Z,12.10
2022-09-30T14:30:39.508Z,12.10
2022-09-30T14:33:47.952Z,12.11
2022-09-30T14:36:53.624Z,12.12
2022-09-30T14:39:57.769Z,12.13
2022-09-30T14:43:06.288Z,12.15
2022-09-30T14:46:37.664Z,12.16
2022-09-30T14:49:41.163Z,12.17
2022-09-30T14:52:47.045Z,12.16
2022-09-30T14:55:50.297Z,12.14
2022-09-30T14:58:57.230Z,12.12
2022-09-30T15:02:22.319Z,12.10
2022-09-30T15:05:26.694Z,12.06
2022-09-30T15:08:29.690Z,12.05
2022-09-30T15:11:39.315Z,12.03
2022-09-30T15:14:56.926Z,12.01
2022-09-30T15:18:00.173Z,11.99
2022-09-30T15:21:31.344Z,11.99
2022-09-30T15:24:36.468Z,11.97
2022-09-30T15:27:39.757Z,11.96
2022-09-30T15:30:43.584Z,11.95
2022-09-30T15:33:46.717Z,11.94
2022-09-30T15:36:58.955Z,11.94
2022-09-30T15:40:21.278Z,11.93
2022-09-30T15:43:52.060Z,11.93
2022-09-30T15:47:10.934Z,11.92
2022-09-30T15:50:55.481Z,11.90
2022-09-30T15:54:29.328Z,11.89
2022-09-30T15:57:49.874Z,11.88
2022-09-30T16:01:21.805Z,11.87
2022-09-30T16:04:26.386Z,11.87
2022-09-30T16:07:32.022Z,11.86
2022-09-30T16:10:37.649Z,11.85
2022-09-30T16:13:45.412Z,11.85
2022-09-30T16:16:57.387Z,11.84
2022-09-30T16:20:05.303Z,11.84
2022-09-30T16:23:28.850Z,11.83
2022-09-30T16:26:34.135Z,11.82
2022-09-30T16:29:38.119Z,11.82
2022-09-30T16:32:44.310Z,11.82
2022-09-30T16:35:47.675Z,11.80
2022-09-30T16:38:50.687Z,11.81
2022-09-30T16:41:54.547Z,11.81
2022-09-30T16:45:01.215Z,11.80
2022-09-30T16:48:15.659Z,11.79
2022-09-30T16:51:18.832Z,11.80
2022-09-30T16:54:21.843Z,11.80
2022-09-30T16:57:24.721Z,11.80
2022-09-30T17:00:28.999Z,11.79
2022-09-30T17:03:32.906Z,11.80
2022-09-30T17:06:37.146Z,11.79
2022-09-30T17:09:40.550Z,11.79
2022-09-30T17:12:43.402Z,11.79
2022-09-30T17:15:52.616Z,11.79
2022-09-30T17:18:55.805Z,11.79
2022-09-30T17:21:58.646Z,11.78
2022-09-30T17:25:01.836Z,11.79
2022-09-30T17:28:06.114Z,11.78
2022-09-30T17:31:11.192Z,11.78
2022-09-30T17:34:14.598Z,11.78
2022-09-30T17:37:17.449Z,11.78
2022-09-30T17:40:38.621Z,11.77
2022-09-30T17:43:41.754Z,11.77
2022-09-30T17:46:45.678Z,11.77
2022-09-30T17:49:48.658Z,11.76
2022-09-30T17:52:51.612Z,11.77
2022-09-30T17:56:14.374Z,11.76
2022-09-30T17:59:21.566Z,11.76
2022-09-30T18:02:25.405Z,11.76
2022-09-30T18:05:30.685Z,11.76
2022-09-30T18:08:34.859Z,11.75
2022-09-30T18:11:43.340Z,11.76
2022-09-30T18:14:47.105Z,11.76
2022-09-30T18:17:50.114Z,11.76
2022-09-30T18:20:53.277Z,11.75
2022-09-30T18:23:57.731Z,11.75
2022-09-30T18:27:01.071Z,11.75
2022-09-30T18:30:06.104Z,11.76
2022-09-30T18:33:11.048Z,11.76
2022-09-30T18:36:14.668Z,11.75
2022-09-30T18:39:17.682Z,11.75
2022-09-30T18:42:20.733Z,11.75
2022-09-30T18:45:26.845Z,11.75
2022-09-30T18:48:30.894Z,11.75
2022-09-30T18:51:34.215Z,11.76
2022-09-30T18:54:41.788Z,11.76
2022-09-30T18:57:50.442Z,11.76
2022-09-30T19:00:55.995Z,11.76
2022-09-30T19:04:04.395Z,11.76
2022-09-30T19:07:07.812Z,11.75
2022-09-30T19:10:15.508Z,11.76
2022-09-30T19:13:18.574Z,11.76
2022-09-30T19:16:22.303Z,11.76
2022-09-30T19:19:25.523Z,11.77
2022-09-30T19:22:29.637Z,11.77
2022-09-30T19:25:32.657Z,11.77
2022-09-30T19:28:38.324Z,11.77
2022-09-30T19:31:45.433Z,11.77
2022-09-30T19:35:01.614Z,11.77
2022-09-30T19:38:12.085Z,11.77
2022-09-30T19:41:16.792Z,11.77
2022-09-30T19:44:21.649Z,11.77
2022-09-30T19:47:24.863Z,11.78
2022-09-30T19:50:28.293Z,11.77
2022-09-30T19:53:33.044Z,11.78
2022-09-30T19:56:38.247Z,11.77
2022-09-30T19:59:41.523Z,11.77
2022-09-30T20:02:45.550Z,11.78
2022-09-30T20:05:48.510Z,11.77
2022-09-30T20:09:00.270Z,11.77
2022-09-30T20:12:03.940Z,11.77
2022-09-30T20:15:28.052Z,11.76
2022-09-30T20:18:31.386Z,11.76
2022-09-30T20:21:35.423Z,11.75
2022-09-30T20:24:39.906Z,11.74
2022-09-30T20:27:51.920Z,11.74
2022-09-30T20:30:56.313Z,11.74
2022-09-30T20:34:00.131Z,11.74
2022-09-30T20:37:03.307Z,11.74
2022-09-30T20:40:09.245Z,11.73
2022-09-30T20:43:13.892Z,11.73
2022-09-30T20:46:16.798Z,11.73
2022-09-30T20:49:20.052Z,11.72
2022-09-30T20:52:23.693Z,11.72
2022-09-30T20:55:26.741Z,11.72
2022-09-30T20:58:29.881Z,11.73
2022-09-30T21:01:33.181Z,11.72
2022-09-30T21:04:36.409Z,11.72
2022-09-30T21:07:39.335Z,11.72
2022-09-30T21:10:42.286Z,11.73
2022-09-30T21:13:50.777Z,11.73
2022-09-30T21:16:53.897Z,11.73
2022-09-30T21:19:57.105Z,11.74
2022-09-30T21:22:59.988Z,11.74
2022-09-30T21:26:09.631Z,11.74
2022-09-30T21:29:12.705Z,11.75
2022-09-30T21:32:15.723Z,11.75
2022-09-30T21:35:18.669Z,11.75
2022-09-30T21:38:25.219Z,11.75
2022-09-30T21:41:28.358Z,11.75
2022-09-30T21:44:31.220Z,11.76
2022-09-30T21:47:34.397Z,11.76
2022-09-30T21:50:37.832Z,11.76
2022-09-30T21:53:41.396Z,11.76
2022-09-30T21:56:44.265Z,11.77
2022-09-30T21:59:50.374Z,11.77
2022-09-30T22:02:53.444Z,11.78
2022-09-30T22:05:58.375Z,11.79
2022-09-30T22:09:02.077Z,11.79
2022-09-30T22:12:08.991Z,11.80
2022-09-30T22:15:12.004Z,11.80
2022-09-30T22:18:20.690Z,11.81
2022-09-30T22:21:23.552Z,11.81
2022-09-30T22:24:26.386Z,11.81
2022-09-30T22:27:32.145Z,11.82
2022-09-30T22:30:37.954Z,11.82
2022-09-30T22:33:59.373Z,11.82
2022-09-30T22:37:20.517Z,11.82
2022-09-30T22:40:23.458Z,11.82
2022-09-30T22:43:27.365Z,11.83
2022-09-30T22:46:32.729Z,11.83
2022-09-30T22:49:36.254Z,11.83
2022-09-30T22:52:39.079Z,11.83
2022-09-30T22:55:41.993Z,11.84
2022-09-30T22:58:46.827Z,11.84
2022-09-30T23:01:49.754Z,11.84
2022-09-30T23:04:53.225Z,11.84
2022-09-30T23:07:56.080Z,11.84
2022-09-30T23:11:00.408Z,11.83
2022-09-30T23:14:03.401Z,11.83
2022-09-30T23:17:06.620Z,11.83
2022-09-30T23:20:10.042Z,11.84
2022-09-30T23:23:14.107Z,11.84
2022-09-30T23:26:20.244Z,11.83
2022-09-30T23:29:23.289Z,11.83
2022-09-30T23:32:26.716Z,11.83
2022-09-30T23:35:29.628Z,11.83
2022-09-30T23:38:33.497Z,11.82
2022-09-30T23:41:36.791Z,11.82
2022-09-30T23:44:39.875Z,11.82
2022-09-30T23:47:47.998Z,11.82
2022-09-30T23:50:51.492Z,11.82
2022-09-30T23:53:54.480Z,11.82
2022-09-30T23:56:57.408Z,11.82
